Time;durP1;ratioP1;P1;durP2;ratioP2;P2;SDS_P1;SDS_P2;PMS_P1;PMS_P2;Temp;Humidity;BMP_temperature;BMP_pressure;BME280_temperature;BME280_humidity;BME280_pressure;Samples;Min_cycle;Max_cycle;Signal;HPM_P1;HPM_P2
2022/03/21 00:00:39;;;;;;;;;50.75;40.75;;;;;10.41;100.00;102166.25;4980573;28;45733;-85
2022/03/21 00:03:07;;;;;;;;;56.25;43.75;;;;;10.47;100.00;102175.03;4990092;28;45158;-84
2022/03/21 00:05:33;;;;;;;;;62.25;49.00;;;;;10.17;100.00;102124.69;4988881;28;45353;-83
2022/03/21 00:07:59;;;;;;;;;59.00;47.50;;;;;10.25;100.00;102142.47;4986330;28;45209;-83
2022/03/21 00:10:25;;;;;;;;;61.50;47.50;;;;;9.51;100.00;102016.13;4989627;28;45501;-83
2022/03/21 00:12:51;;;;;;;;;58.50;48.50;;;;;8.64;100.00;101871.47;4989577;28;45146;-83
2022/03/21 00:15:17;;;;;;;;;57.25;48.00;;;;;9.40;100.00;102018.44;4990050;28;45324;-84
2022/03/21 00:17:43;;;;;;;;;60.00;47.00;;;;;9.94;100.00;102120.25;4991137;28;45224;-79
2022/03/21 00:20:11;;;;;;;;;61.25;49.00;;;;;9.95;100.00;102105.72;4988930;28;46788;-86
2022/03/21 00:22:37;;;;;;;;;59.25;48.00;;;;;9.86;100.00;102087.97;4988205;28;45246;-79
2022/03/21 00:25:05;;;;;;;;;55.50;46.00;;;;;10.24;100.00;102159.72;4985292;28;45328;-84
2022/03/21 00:27:35;;;;;;;;;68.00;48.00;;;;;10.34;100.00;102177.41;4989454;28;45183;-80
2022/03/21 00:30:01;;;;;;;;;57.25;48.00;;;;;10.42;100.00;102198.81;4990176;28;45439;-78
2022/03/21 00:32:27;;;;;;;;;61.00;46.00;;;;;9.37;100.00;102033.00;4971374;28;45007;-77
2022/03/21 00:34:52;;;;;;;;;65.75;48.25;;;;;10.37;100.00;102200.84;4989409;28;44972;-78
2022/03/21 00:37:17;;;;;;;;;57.25;45.75;;;;;10.36;100.00;102204.53;4989543;28;44995;-77
2022/03/21 00:39:43;;;;;;;;;61.25;46.75;;;;;9.96;100.00;102129.19;4972038;28;47201;-78
2022/03/21 00:42:10;;;;;;;;;62.00;50.00;;;;;10.16;100.00;102171.84;4989684;28;45173;-76
2022/03/21 00:44:39;;;;;;;;;60.25;47.50;;;;;10.04;100.00;102159.66;4990052;28;45355;-77
2022/03/21 00:47:04;;;;;;;;;59.50;47.25;;;;;10.30;100.00;102188.47;4989868;28;45107;-77
2022/03/21 00:49:30;;;;;;;;;60.25;45.75;;;;;10.14;100.00;102161.03;4989454;28;45689;-76
2022/03/21 00:51:55;;;;;;;;;58.50;46.50;;;;;10.20;100.00;102184.34;4988961;28;45041;-79
2022/03/21 00:54:21;;;;;;;;;62.25;49.75;;;;;10.25;100.00;102194.09;4990493;28;45429;-77
2022/03/21 00:56:46;;;;;;;;;61.50;48.25;;;;;8.77;100.00;101943.22;4972076;28;45222;-77
2022/03/21 00:59:11;;;;;;;;;58.50;47.50;;;;;9.42;100.00;102046.38;4989092;28;45551;-78
2022/03/21 01:01:37;;;;;;;;;61.25;48.25;;;;;9.85;100.00;102121.50;4989601;28;45054;-77
2022/03/21 01:04:02;;;;;;;;;61.75;48.50;;;;;9.57;100.00;102083.75;4988978;28;45355;-79
2022/03/21 01:06:28;;;;;;;;;65.50;47.75;;;;;10.12;100.00;102171.94;4988823;28;45200;-76
2022/03/21 01:08:54;;;;;;;;;57.50;47.00;;;;;10.03;100.00;102169.63;4989482;28;45198;-76
2022/03/21 01:11:19;;;;;;;;;65.75;50.25;;;;;9.60;100.00;102083.63;4989395;28;45201;-80
2022/03/21 01:13:44;;;;;;;;;61.75;49.00;;;;;10.20;100.00;102184.34;4988961;28;45186;-81
2022/03/21 01:16:10;;;;;;;;;61.25;48.25;;;;;10.10;100.00;102179.28;4989943;28;45324;-76
2022/03/21 01:18:36;;;;;;;;;59.75;50.00;;;;;8.97;100.00;102002.09;4989246;28;45939;-76
2022/03/21 01:21:01;;;;;;;;;63.75;49.00;;;;;10.16;100.00;102193.56;4989474;28;45256;-76
2022/03/21 01:23:27;;;;;;;;;67.25;50.00;;;;;10.14;100.00;102199.09;4989657;28;45301;-75
2022/03/21 01:25:52;;;;;;;;;61.50;50.50;;;;;10.03;100.00;102179.59;4989368;28;45107;-84
2022/03/21 01:28:17;;;;;;;;;62.25;49.25;;;;;9.64;100.00;102108.84;4988947;28;45122;-83
2022/03/21 01:30:43;;;;;;;;;61.50;48.75;;;;;9.91;100.00;102150.25;4987599;28;45208;-81
2022/03/21 01:33:09;;;;;;;;;60.25;49.50;;;;;10.04;100.00;102178.69;4989370;28;45164;-83
2022/03/21 01:35:34;;;;;;;;;62.75;50.50;;;;;10.04;100.00;102182.28;4988823;28;45311;-80
2022/03/21 01:38:00;;;;;;;;;61.75;49.50;;;;;10.11;100.00;102208.22;4989194;28;45566;-79
2022/03/21 01:40:25;;;;;;;;;61.25;49.00;;;;;8.69;100.00;101958.91;4988066;28;45185;-77
2022/03/21 01:42:50;;;;;;;;;62.75;50.25;;;;;8.55;100.00;101936.88;4970425;28;45225;-77
2022/03/21 01:45:17;;;;;;;;;64.00;49.75;;;;;8.94;100.00;102007.63;4989182;28;45371;-78
2022/03/21 01:47:46;;;;;;;;;60.25;48.75;;;;;10.10;100.00;102195.59;4988074;28;45660;-81
2022/03/21 01:50:13;;;;;;;;;68.50;50.00;;;;;9.86;100.00;102155.88;4989374;28;45228;-82
2022/03/21 01:52:42;;;;;;;;;67.50;50.50;;;;;9.98;100.00;102174.34;4994138;28;45218;-84
2022/03/21 01:57:54;;;;;;;;;65.25;51.00;;;;;9.04;100.00;102016.28;4988744;28;45269;-80
2022/03/21 02:00:19;;;;;;;;;64.50;49.00;;;;;8.35;100.00;101891.56;4988367;28;45038;-84
2022/03/21 02:02:45;;;;;;;;;63.00;46.25;;;;;10.06;100.00;102176.78;4988442;28;45275;-84
2022/03/21 02:05:11;;;;;;;;;58.75;47.25;;;;;8.44;100.00;101907.50;4988561;28;45327;-84
2022/03/21 02:07:36;;;;;;;;;63.75;48.25;;;;;9.48;100.00;102084.13;4988712;28;45945;-84
2022/03/21 02:10:06;;;;;;;;;55.25;45.00;;;;;8.86;100.00;101990.75;4988008;28;45169;-80
2022/03/21 02:12:33;;;;;;;;;61.00;47.00;;;;;9.17;100.00;102033.81;4988169;28;45074;-79
2022/03/21 02:14:59;;;;;;;;;63.25;51.00;;;;;9.09;100.00;102015.16;4988836;28;45248;-83
2022/03/21 02:17:26;;;;;;;;;60.25;49.00;;;;;8.86;100.00;101985.34;4987846;28;45138;-77
2022/03/21 02:19:53;;;;;;;;;61.75;50.00;;;;;9.17;100.00;102027.50;4988235;28;45078;-80
2022/03/21 02:22:27;;;;;;;;;67.00;51.50;;;;;10.09;100.00;102174.81;4986876;28;45540;-79
2022/03/21 02:25:02;;;;;;;;;59.25;48.50;;;;;9.02;100.00;102021.78;4988541;28;45175;-79
2022/03/21 02:27:30;;;;;;;;;62.50;50.00;;;;;10.02;100.00;102170.56;4988126;28;45265;-82
2022/03/21 02:29:56;;;;;;;;;56.00;46.25;;;;;10.18;100.00;102188.94;4987976;28;45094;-79
2022/03/21 02:32:22;;;;;;;;;62.50;49.50;;;;;9.79;100.00;102127.22;4987942;28;45087;-79
2022/03/21 02:34:48;;;;;;;;;63.25;47.25;;;;;10.17;100.00;102184.47;4970626;28;45264;-80
2022/03/21 02:37:16;;;;;;;;;64.00;47.25;;;;;9.56;100.00;102076.56;4988310;28;45743;-80
2022/03/21 02:39:43;;;;;;;;;56.25;45.75;;;;;10.14;100.00;102170.06;4987483;28;45083;-78
2022/03/21 02:42:09;;;;;;;;;66.25;52.75;;;;;10.03;100.00;102157.88;4987483;28;45142;-79
2022/03/21 02:44:36;;;;;;;;;60.00;48.75;;;;;10.03;100.00;102156.03;4987933;28;45149;-79
2022/03/21 02:47:02;;;;;;;;;61.25;46.25;;;;;9.97;100.00;102159.00;4987701;28;45591;-79
2022/03/21 02:49:28;;;;;;;;;68.75;50.75;;;;;9.92;100.00;102133.00;4988777;28;45571;-78
2022/03/21 02:51:55;;;;;;;;;65.75;51.75;;;;;9.18;100.00;102018.44;4987865;28;45610;-82
2022/03/21 02:54:22;;;;;;;;;59.25;48.75;;;;;9.62;100.00;102084.44;4987761;28;45157;-78
2022/03/21 02:56:48;;;;;;;;;64.25;50.00;;;;;10.11;100.00;102180.19;4987856;28;45228;-84
2022/03/21 02:59:16;;;;;;;;;56.25;47.00;;;;;9.94;100.00;102136.53;4976460;28;45205;-82
2022/03/21 03:01:42;;;;;;;;;56.75;44.75;;;;;8.47;100.00;101912.81;4987927;28;45185;-83
2022/03/21 03:04:08;;;;;;;;;66.50;53.00;;;;;8.52;100.00;101908.09;4977494;28;45101;-82
2022/03/21 03:06:34;;;;;;;;;66.50;50.50;;;;;8.74;100.00;101947.88;4986390;28;45456;-83
2022/03/21 03:08:59;;;;;;;;;65.75;50.00;;;;;10.06;100.00;102174.06;4987402;28;45102;-81
2022/03/21 03:11:25;;;;;;;;;62.50;48.75;;;;;8.12;100.00;101850.97;4988007;28;45099;-83
2022/03/21 03:13:50;;;;;;;;;69.25;51.50;;;;;8.48;100.00;101911.84;4987587;28;45207;-76
2022/03/21 03:16:18;;;;;;;;;67.50;52.75;;;;;10.07;100.00;102173.09;4987865;28;46085;-76
2022/03/21 03:18:44;;;;;;;;;67.75;54.25;;;;;9.92;100.00;102143.84;4987396;28;45154;-76
2022/03/21 03:21:10;;;;;;;;;63.00;51.75;;;;;10.06;100.00;102172.22;4985728;28;45467;-79
2022/03/21 03:23:38;;;;;;;;;63.00;49.00;;;;;8.10;100.00;101842.00;4986694;28;45325;-77
2022/03/21 03:26:04;;;;;;;;;64.00;50.25;;;;;10.05;100.00;102175.88;4987423;28;45458;-78
2022/03/21 03:28:31;;;;;;;;;59.50;49.25;;;;;8.89;100.00;101985.22;4987365;28;45197;-80
2022/03/21 03:30:58;;;;;;;;;60.00;46.50;;;;;9.23;100.00;102062.56;4987583;28;45261;-79
2022/03/21 03:33:25;;;;;;;;;62.75;46.75;;;;;10.05;100.00;102185.88;4987209;28;45280;-78
2022/03/21 03:35:51;;;;;;;;;60.75;48.50;;;;;8.93;100.00;101989.59;4987445;28;45827;-80
2022/03/21 03:38:17;;;;;;;;;59.50;47.50;;;;;10.06;100.00;102179.50;4986547;28;45233;-81
2022/03/21 03:40:46;;;;;;;;;62.75;49.50;;;;;8.95;100.00;102012.09;4987566;28;45246;-82
2022/03/21 03:43:12;;;;;;;;;60.25;49.00;;;;;10.03;100.00;102174.16;4987183;28;45302;-77
2022/03/21 03:45:38;;;;;;;;;58.00;47.25;;;;;8.97;100.00;102018.38;4973226;28;47680;-81
2022/03/21 03:48:04;;;;;;;;;57.25;47.50;;;;;10.09;100.00;102182.97;4985250;28;45017;-81
2022/03/21 03:50:30;;;;;;;;;61.50;50.50;;;;;10.01;100.00;102178.78;4990545;28;45200;-79
2022/03/21 03:52:55;;;;;;;;;66.50;51.50;;;;;9.57;100.00;102102.75;4990033;28;45228;-79
2022/03/21 03:55:20;;;;;;;;;64.25;49.25;;;;;10.15;100.00;102192.69;4994016;28;45174;-83
2022/03/21 03:57:47;;;;;;;;;61.75;50.50;;;;;9.99;100.00;102170.72;4989095;28;45087;-83
2022/03/21 04:00:14;;;;;;;;;57.25;46.25;;;;;10.17;100.00;102182.63;4987160;28;45161;-83
2022/03/21 04:05:25;;;;;;;;;62.00;48.00;;;;;10.13;100.00;102172.84;4991001;28;45443;-79
2022/03/21 04:07:51;;;;;;;;;57.00;46.25;;;;;9.07;100.00;102011.63;4989741;28;45216;-80
2022/03/21 04:10:16;;;;;;;;;60.50;47.00;;;;;10.18;100.00;102180.78;4968079;28;45177;-80
2022/03/21 04:12:46;;;;;;;;;64.25;50.00;;;;;9.76;100.00;102111.03;4987782;28;45015;-79
2022/03/21 04:15:12;;;;;;;;;61.25;48.75;;;;;9.74;100.00;102102.94;4989716;28;45240;-77
2022/03/21 04:17:37;;;;;;;;;58.50;48.50;;;;;9.68;100.00;102097.78;4990052;28;45348;-78
2022/03/21 04:20:04;;;;;;;;;64.25;48.50;;;;;9.16;100.00;102021.19;4973482;28;45106;-78
2022/03/21 04:22:29;;;;;;;;;55.25;45.50;;;;;10.03;100.00;102161.47;4989872;28;45091;-77
2022/03/21 04:24:55;;;;;;;;;63.75;48.75;;;;;10.34;100.00;102200.97;4989709;28;45808;-78
2022/03/21 04:27:20;;;;;;;;;65.50;49.50;;;;;10.23;100.00;102184.19;4989477;28;45122;-77
2022/03/21 04:29:46;;;;;;;;;70.50;51.50;;;;;10.37;100.00;102212.59;4990242;28;45235;-77
2022/03/21 04:32:11;;;;;;;;;71.00;55.25;;;;;9.76;100.00;102127.31;4988468;28;45229;-78
2022/03/21 04:34:37;;;;;;;;;63.00;47.50;;;;;10.13;100.00;102178.28;4989853;28;45206;-77
2022/03/21 04:37:02;;;;;;;;;69.50;53.75;;;;;9.18;100.00;102016.59;4990257;28;45298;-77
2022/03/21 04:39:28;;;;;;;;;67.25;51.00;;;;;9.57;100.00;102081.03;4990257;28;45066;-79
2022/03/21 04:41:54;;;;;;;;;62.25;49.25;;;;;10.20;100.00;102179.78;4988931;28;45222;-80
2022/03/21 04:44:19;;;;;;;;;63.75;48.00;;;;;8.92;100.00;101979.69;4989567;28;45256;-81
2022/03/21 04:46:45;;;;;;;;;64.25;50.00;;;;;9.87;100.00;102144.94;4989219;28;45067;-78
2022/03/21 04:49:10;;;;;;;;;64.00;49.00;;;;;9.79;100.00;102119.06;4990145;28;45508;-76
2022/03/21 04:51:35;;;;;;;;;53.75;42.75;;;;;9.65;100.00;102107.88;4989540;28;45248;-80
2022/03/21 04:54:01;;;;;;;;;60.50;47.25;;;;;8.68;100.00;101940.00;4989288;28;45872;-80
2022/03/21 04:56:26;;;;;;;;;60.75;47.00;;;;;10.20;100.00;102196.09;4988943;28;45027;-76
2022/03/21 04:58:52;;;;;;;;;58.00;47.75;;;;;10.30;100.00;102219.25;4989287;28;45795;-79
2022/03/21 05:01:18;;;;;;;;;61.00;47.00;;;;;9.61;100.00;102102.56;4988739;28;44939;-78
2022/03/21 05:03:44;;;;;;;;;55.50;44.75;;;;;8.66;100.00;101947.28;4988954;28;45561;-78
2022/03/21 05:06:09;;;;;;;;;63.75;49.50;;;;;9.56;100.00;102090.13;4989233;28;45157;-77
2022/03/21 05:08:35;;;;;;;;;53.25;44.25;;;;;10.44;100.00;102240.44;4989800;28;45201;-78
2022/03/21 05:11:00;;;;;;;;;59.00;46.50;;;;;8.68;100.00;101932.75;4988870;28;45507;-82
2022/03/21 05:13:26;;;;;;;;;57.75;44.25;;;;;10.17;100.00;102193.50;4988769;28;45461;-77
2022/03/21 05:15:51;;;;;;;;;63.00;47.75;;;;;9.95;100.00;102152.78;4987538;28;45229;-76
2022/03/21 05:18:17;;;;;;;;;60.75;46.50;;;;;9.70;100.00;102103.13;4988835;28;45708;-78
2022/03/21 05:20:43;;;;;;;;;58.25;45.50;;;;;10.10;100.00;102184.72;4988525;28;45098;-79
2022/03/21 05:31:20;;;;;;;;;55.50;44.00;;;;;10.31;100.00;102210.16;4989309;28;45280;-80
2022/03/21 05:36:29;;;;;;;;;63.00;47.00;;;;;10.57;100.00;102247.09;4989384;28;45171;-77
2022/03/21 05:38:56;;;;;;;;;57.50;45.25;;;;;10.51;100.00;102227.44;4982038;28;45091;-78
2022/03/21 05:41:22;;;;;;;;;57.00;45.00;;;;;10.59;100.00;102256.09;4988643;28;45153;-76
2022/03/21 05:43:47;;;;;;;;;57.00;47.25;;;;;10.61;100.00;102251.47;4988504;28;45587;-76
2022/03/21 05:46:14;;;;;;;;;60.25;46.00;;;;;10.07;100.00;102157.69;4988611;28;45227;-76
2022/03/21 05:48:59;;;;;;;;;58.50;45.00;;;;;9.92;100.00;102135.72;4988721;28;45327;-77
2022/03/21 05:51:30;;;;;;;;;55.25;46.00;;;;;10.49;100.00;102234.75;4987478;28;45223;-78
2022/03/21 05:53:57;;;;;;;;;61.25;46.25;;;;;10.62;100.00;102255.06;4989123;28;45559;-78
2022/03/21 05:56:25;;;;;;;;;55.50;44.00;;;;;10.62;100.00;102263.22;4989164;28;45139;-81
2022/03/21 05:58:51;;;;;;;;;57.00;46.00;;;;;10.27;100.00;102207.63;4991007;28;45139;-79
2022/03/21 06:01:21;;;;;;;;;62.25;47.75;;;;;10.03;100.00;102176.88;4988885;28;45373;-77
2022/03/21 06:03:47;;;;;;;;;51.50;40.75;;;;;10.11;100.00;102174.75;4988425;28;45109;-77
2022/03/21 06:06:15;;;;;;;;;53.25;42.00;;;;;10.45;100.00;102249.47;4987602;28;45001;-80
2022/03/21 06:08:40;;;;;;;;;49.75;41.25;;;;;10.12;100.00;102187.38;4988166;28;45552;-82
2022/03/21 06:11:08;;;;;;;;;57.50;45.50;;;;;10.59;100.00;102280.56;4988693;28;45070;-82
2022/03/21 06:13:37;;;;;;;;;54.75;42.75;;;;;10.54;100.00;102273.53;4984530;28;45278;-79
2022/03/21 06:16:04;;;;;;;;;56.25;43.75;;;;;10.51;100.00;102273.69;4988743;28;45190;-78
2022/03/21 06:18:35;;;;;;;;;61.00;49.00;;;;;10.16;100.00;102210.75;4970244;28;45469;-80
2022/03/21 06:21:02;;;;;;;;;57.50;44.75;;;;;10.51;100.00;102271.84;4987529;28;45207;-75
2022/03/21 06:23:28;;;;;;;;;59.50;46.00;;;;;10.46;100.00;102273.88;4979841;28;46080;-76
2022/03/21 06:25:54;;;;;;;;;62.00;46.25;;;;;10.59;100.00;102291.44;4966114;28;45224;-78
2022/03/21 06:28:23;;;;;;;;;57.00;46.00;;;;;10.44;100.00;102273.06;4985177;28;45406;-75
2022/03/21 06:30:53;;;;;;;;;53.00;41.50;;;;;10.38;100.00;102268.72;4987503;28;45532;-77
2022/03/21 06:33:21;;;;;;;;;53.25;43.75;;;;;10.59;100.00;102310.47;4981889;28;45730;-76
2022/03/21 06:35:48;;;;;;;;;56.25;44.75;;;;;10.36;100.00;102281.53;4987118;28;45434;-80
2022/03/21 06:38:14;;;;;;;;;54.25;43.50;;;;;10.60;100.00;102323.13;4987553;28;45306;-78
2022/03/21 06:40:41;;;;;;;;;54.50;44.25;;;;;9.46;100.00;102124.03;4987663;28;45201;-78
2022/03/21 06:43:06;;;;;;;;;55.25;44.25;;;;;10.61;100.00;102326.72;4987879;28;45229;-78
2022/03/21 06:45:32;;;;;;;;;56.25;45.00;;;;;9.15;100.00;102086.38;4988763;28;45130;-78
2022/03/21 06:47:58;;;;;;;;;53.00;43.00;;;;;9.51;100.00;102141.91;4987013;28;45440;-78
2022/03/21 06:50:25;;;;;;;;;50.75;41.75;;;;;10.63;100.00;102336.56;4987894;28;45166;-80
2022/03/21 06:52:52;;;;;;;;;55.75;40.50;;;;;10.30;100.00;102281.78;4987836;28;46124;-76
2022/03/21 06:55:19;;;;;;;;;50.75;40.75;;;;;10.03;100.00;102252.97;4988037;28;45138;-78
2022/03/21 06:57:45;;;;;;;;;60.00;45.00;;;;;10.65;100.00;102353.72;4985428;28;45320;-78
2022/03/21 07:00:13;;;;;;;;;52.75;42.75;;;;;8.83;100.00;102026.16;4984611;28;45189;-78
2022/03/21 07:02:39;;;;;;;;;58.50;45.50;;;;;9.48;100.00;102146.56;4984612;28;45355;-78
2022/03/21 07:05:07;;;;;;;;;57.00;44.00;;;;;10.70;100.00;102350.81;4986235;28;45071;-77
2022/03/21 07:07:33;;;;;;;;;58.50;46.00;;;;;9.77;100.00;102195.16;4987485;28;45253;-77
2022/03/21 07:09:59;;;;;;;;;59.75;43.50;;;;;9.92;100.00;102199.06;4987628;28;45434;-76
2022/03/21 07:12:27;;;;;;;;;51.75;42.50;;;;;10.08;100.00;102226.50;4985041;28;45744;-78
2022/03/21 07:14:52;;;;;;;;;55.50;44.50;;;;;10.82;100.00;102346.69;4976731;28;45244;-77
2022/03/21 07:17:21;;;;;;;;;53.25;41.00;;;;;10.53;100.00;102301.69;4987519;28;45194;-76
2022/03/21 07:19:47;;;;;;;;;43.50;38.00;;;;;10.29;100.00;102260.06;4987755;28;45460;-84
2022/03/21 07:22:14;;;;;;;;;54.00;42.75;;;;;10.68;100.00;102319.19;4990035;28;45124;-77
2022/03/21 07:24:40;;;;;;;;;57.75;44.75;;;;;9.24;100.00;102061.59;4987478;28;45038;-78
2022/03/21 07:27:06;;;;;;;;;56.25;43.25;;;;;10.87;100.00;102337.38;4971487;28;45368;-79
2022/03/21 07:29:31;;;;;;;;;50.00;42.25;;;;;10.98;100.00;102350.53;4987476;28;45119;-80
2022/03/21 07:31:57;;;;;;;;;53.25;40.50;;;;;10.99;100.00;102344.13;4968802;28;47067;-79
2022/03/21 07:34:23;;;;;;;;;51.75;41.50;;;;;10.12;100.00;102203.69;4990711;28;45319;-82
2022/03/21 07:36:49;;;;;;;;;51.50;41.00;;;;;10.70;100.00;102277.38;4988256;28;45212;-82
2022/03/21 07:39:14;;;;;;;;;52.75;42.75;;;;;10.69;100.00;102275.59;4989887;28;45508;-82
2022/03/21 07:41:43;;;;;;;;;55.75;42.75;;;;;10.93;100.00;102311.75;4989307;28;45190;-76
2022/03/21 07:44:08;;;;;;;;;51.75;39.75;;;;;10.40;100.00;102208.88;4986952;28;46615;-77
2022/03/21 07:49:18;;;;;;;;;54.00;43.75;;;;;10.98;100.00;102298.81;4990708;28;45504;-79
2022/03/21 07:51:43;;;;;;;;;53.50;40.75;;;;;11.19;100.00;102329.63;4990695;28;45450;-83
2022/03/21 07:54:10;;;;;;;;;48.50;40.75;;;;;11.22;100.00;102323.19;4990497;28;44980;-78
2022/03/21 07:56:36;;;;;;;;;51.75;40.00;;;;;11.35;100.00;102348.91;4990346;28;45315;-84
2022/03/21 07:59:03;;;;;;;;;53.25;41.75;;;;;10.30;100.00;102170.34;4998641;28;45656;-77
2022/03/21 08:01:30;;;;;;;;;52.00;40.50;;;;;11.20;100.00;102303.28;4993795;28;45264;-79
2022/03/21 08:04:00;;;;;;;;;47.00;38.75;;;;;11.25;100.00;102310.31;4991361;28;45292;-79
2022/03/21 08:06:26;;;;;;;;;39.75;35.75;;;;;11.25;100.00;102306.69;4986420;28;45214;-82
2022/03/21 08:08:54;;;;;;;;;46.00;39.00;;;;;11.61;100.00;102359.53;4987151;28;45353;-83
2022/03/21 08:11:21;;;;;;;;;47.25;41.25;;;;;11.36;100.00;102329.78;4989335;28;45402;-75
2022/03/21 08:13:49;;;;;;;;;51.50;40.50;;;;;10.76;100.00;102225.44;4971707;28;45242;-78
2022/03/21 08:16:20;;;;;;;;;53.75;41.75;;;;;11.75;100.00;102379.78;4970390;28;45420;-77
2022/03/21 08:18:55;;;;;;;;;50.50;40.75;;;;;10.80;100.00;102202.56;4988134;28;45460;-75
2022/03/21 08:21:21;;;;;;;;;51.75;41.00;;;;;11.24;100.00;102270.44;4988768;28;45463;-75
2022/03/21 08:23:47;;;;;;;;;49.75;42.25;;;;;11.36;100.00;102286.22;4990221;28;45086;-75
2022/03/21 08:26:13;;;;;;;;;46.25;39.00;;;;;11.52;100.00;102316.34;4990448;28;45394;-77
2022/03/21 08:28:38;;;;;;;;;48.00;40.50;;;;;11.73;100.00;102346.28;4989891;28;45072;-76
2022/03/21 08:31:04;;;;;;;;;49.75;39.25;;;;;11.75;100.00;102356.13;4985338;28;47128;-76
2022/03/21 08:33:29;;;;;;;;;46.75;38.75;;;;;11.39;100.00;102280.63;4987582;28;45216;-76
2022/03/21 08:35:54;;;;;;;;;43.25;36.50;;;;;11.89;100.00;102370.06;4989166;28;45302;-76
2022/03/21 08:38:20;;;;;;;;;46.00;39.00;;;;;11.73;100.00;102332.66;4989660;28;45285;-75
2022/03/21 08:40:46;;;;;;;;;45.75;39.00;;;;;11.94;100.00;102364.38;4989541;28;45198;-76
2022/03/21 08:43:11;;;;;;;;;48.75;39.50;;;;;11.95;100.00;102363.41;4989203;28;45105;-79
2022/03/21 08:45:37;;;;;;;;;46.00;36.00;;;;;11.26;100.00;102260.38;4971400;28;45185;-76
2022/03/21 08:48:03;;;;;;;;;43.25;36.00;;;;;11.99;100.00;102375.97;4988413;28;45105;-75
2022/03/21 08:50:29;;;;;;;;;42.50;36.75;;;;;11.95;100.00;102363.41;4988811;28;46582;-80
2022/03/21 08:52:58;;;;;;;;;44.25;37.00;;;;;11.73;100.00;102316.31;4989468;28;45098;-77
2022/03/21 08:55:24;;;;;;;;;47.25;40.00;;;;;12.06;100.00;102368.38;4989993;28;45463;-77
2022/03/21 08:57:51;;;;;;;;;48.50;38.75;;;;;11.83;100.00;102328.59;4989414;28;45462;-77
2022/03/21 09:00:16;;;;;;;;;49.00;39.00;;;;;11.50;100.00;102269.22;4987564;28;46255;-77
2022/03/21 09:02:45;;;;;;;;;44.00;36.25;;;;;12.11;100.00;102367.19;4989488;28;45302;-77
2022/03/21 09:05:19;;;;;;;;;38.50;33.25;;;;;11.82;100.00;102311.34;4989626;28;45314;-77
2022/03/21 09:07:47;;;;;;;;;46.00;37.25;;;;;11.70;100.00;102290.97;4988581;28;45404;-77
2022/03/21 09:10:14;;;;;;;;;51.50;35.50;;;;;11.25;100.00;102220.47;4982143;28;46145;-76
2022/03/21 09:12:42;;;;;;;;;35.50;33.00;;;;;12.20;100.00;102365.88;4968834;28;45513;-75
2022/03/21 09:15:07;;;;;;;;;43.25;37.25;;;;;11.01;100.00;102167.19;4988302;28;45146;-77
2022/03/21 09:17:33;;;;;;;;;35.00;32.50;;;;;11.20;100.00;102181.69;4989202;28;45137;-78
2022/03/21 09:19:58;;;;;;;;;41.75;34.75;;;;;12.08;100.00;102333.75;4970662;28;47438;-77
2022/03/21 09:22:24;;;;;;;;;36.25;31.75;;;;;12.03;100.00;102314.88;4988502;28;45063;-78
2022/03/21 09:24:51;;;;;;;;;47.25;38.50;;;;;11.97;100.00;102303.41;4989384;28;44990;-77
2022/03/21 09:27:17;;;;;;;;;40.25;34.50;;;;;12.31;100.00;102355.31;4989271;28;45315;-78
2022/03/21 09:29:42;;;;;;;;;50.00;36.25;;;;;12.35;100.00;102351.50;4988595;28;45518;-76
2022/03/21 09:32:08;;;;;;;;;39.50;31.50;;;;;11.73;100.00;102240.03;4970613;28;45148;-76
2022/03/21 09:34:39;;;;;;;;;45.50;35.00;;;;;11.99;100.00;102285.13;4988823;28;45124;-78
2022/03/21 09:37:04;;;;;;;;;35.00;30.50;;;;;12.42;100.00;102352.09;4988445;28;45224;-77
2022/03/21 09:39:30;;;;;;;;;39.00;33.00;;;;;10.88;100.00;102091.53;4988938;28;45775;-74
2022/03/21 09:41:55;;;;;;;;;41.25;35.00;;;;;12.46;100.00;102370.94;4970462;28;45000;-74
2022/03/21 09:44:21;;;;;;;;;32.00;31.75;;;;;11.86;100.00;102243.94;4988786;28;45163;-76
2022/03/21 09:46:47;;;;;;;;;32.75;29.50;;;;;11.91;100.00;102264.59;4989550;28;45384;-80
2022/03/21 09:49:16;;;;;;;;;50.00;40.00;;;;;12.32;100.00;102312.59;4989870;28;45638;-78
2022/03/21 09:51:43;;;;;;;;;38.75;33.50;;;;;12.56;100.00;102346.81;4988990;28;45254;-78
2022/03/21 09:54:10;;;;;;;;;43.75;36.25;;;;;11.88;100.00;102225.69;4989284;28;45169;-76
2022/03/21 09:56:35;;;;;;;;;42.25;33.75;;;;;11.54;100.00;102175.53;4981677;28;45258;-76
2022/03/21 09:59:01;;;;;;;;;36.25;32.75;;;;;11.57;100.00;102169.94;4988766;28;45688;-77
2022/03/21 10:01:32;;;;;;;;;32.00;30.75;;;;;12.41;100.00;102306.66;4971825;28;45330;-76
2022/03/21 10:03:59;;;;;;;;;34.25;30.50;;;;;12.65;100.00;102340.03;4987345;28;45350;-79
2022/03/21 10:06:29;;;;;;;;;31.50;28.25;;;;;12.67;100.00;102338.09;4985741;28;45250;-76
2022/03/21 10:09:06;;;;;;;;;30.75;27.50;;;;;12.69;100.00;102336.19;4986391;28;45304;-78
2022/03/21 10:11:32;;;;;;;;;27.00;26.00;;;;;12.60;100.00;102312.09;4987656;28;45085;-78
2022/03/21 10:14:00;;;;;;;;;35.25;30.75;;;;;12.75;100.00;102326.81;4988445;28;45358;-78
2022/03/21 10:16:25;;;;;;;;;29.75;25.00;;;;;11.85;100.00;102183.09;4970626;28;45055;-77
2022/03/21 10:18:53;;;;;;;;;25.25;24.25;;;;;12.31;100.00;102250.81;4988376;28;45652;-80
2022/03/21 10:21:21;;;;;;;;;25.00;21.75;;;;;11.91;100.00;102185.56;4988093;28;45368;-79
2022/03/21 10:24:07;;;;;;;;;27.50;22.75;;;;;12.80;100.00;102331.06;4983097;28;45251;-81
2022/03/21 10:26:33;;;;;;;;;21.50;20.50;;;;;12.83;100.00;102330.03;4987769;28;45181;-82
2022/03/21 10:29:05;;;;;;;;;20.33;20.00;;;;;12.79;100.00;102314.78;4988064;28;45162;-80
2022/03/21 10:31:33;;;;;;;;;19.75;18.00;;;;;12.90;100.00;102328.75;4987130;28;45098;-78
2022/03/21 10:34:05;;;;;;;;;17.33;16.00;;;;;12.86;100.00;102316.22;4988391;28;45164;-77
2022/03/21 10:36:31;;;;;;;;;17.33;17.00;;;;;12.54;100.00;102256.00;4988179;28;45234;-76
2022/03/21 10:39:10;;;;;;;;;16.00;14.50;;;;;12.97;100.00;102320.13;4988011;28;45447;-77
2022/03/21 10:41:37;;;;;;;;;18.00;15.67;;;;;12.99;100.00;102320.09;4987033;28;45134;-80
2022/03/21 10:44:04;;;;;;;;;16.67;16.00;;;;;12.91;100.00;102295.91;4970100;28;45526;-76
2022/03/21 10:46:30;;;;;;;;;16.33;14.67;;;;;12.64;100.00;102243.66;4987516;28;45214;-77
2022/03/21 10:49:08;;;;;;;;;21.50;19.25;;;;;12.81;100.00;102285.53;4987946;28;45735;-77
2022/03/21 10:51:50;;;;;;;;;24.25;20.00;;;;;12.93;100.00;102291.25;4982224;28;45384;-78
2022/03/21 10:54:37;;;;;;;;;20.33;18.00;;;;;13.10;100.00;102311.31;4985646;28;45353;-80
2022/03/21 10:57:04;;;;;;;;;19.67;16.00;;;;;12.97;100.00;102291.97;4985164;28;45304;-80
2022/03/21 10:59:31;;;;;;;;;23.00;18.33;;;;;12.69;100.00;102237.94;4986714;28;46046;-76
2022/03/21 11:02:15;;;;;;;;;17.33;15.33;;;;;12.81;100.00;102253.66;4981501;28;45084;-76
2022/03/21 11:04:43;;;;;;;;;18.00;17.33;;;;;13.10;100.00;102306.75;4988865;28;44949;-76
2022/03/21 11:07:12;;;;;;;;;19.67;17.33;;;;;12.86;100.00;102258.88;4986257;28;45210;-74
2022/03/21 11:09:39;;;;;;;;;17.00;15.67;;;;;13.13;100.00;102300.25;4988317;28;46038;-77
2022/03/21 11:12:07;;;;;;;;;19.00;17.00;;;;;13.03;100.00;102280.75;4989612;28;45302;-78
2022/03/21 11:14:38;;;;;;;;;15.00;14.67;;;;;13.14;100.00;102299.28;4993857;28;45094;-74
2022/03/21 11:17:05;;;;;;;;;19.67;16.00;;;;;12.60;100.00;102202.94;4990854;28;45149;-75
2022/03/21 11:19:31;;;;;;;;;15.00;13.00;;;;;13.09;100.00;102279.53;4992903;28;45611;-76
2022/03/21 11:21:59;;;;;;;;;16.00;15.00;;;;;12.31;100.00;102158.09;4990580;28;45114;-77